Terminal Aerodrome Forecast
Issued by NWS Mt. Holly, NJ

Home | Current Version | Previous Version | Text Only | Print | Product List | Glossary On
Versions: 1 2 3 4 5 6 7 8 9 10 11 12 13 14 15 16 17 18 19 20 21 22 23 24 25 26 27 28 29 30 31 32 33 34 35 36 37 38 39 40 41 42 43 44 45 46 47 48 49
000
FTUS41 KPHI 241700
TAFABE
TAF
KABE 241734Z 2418/2518 21015G22KT P6SM SCT028 BKN035
      TEMPO 2418/2420 BKN028 BKN035
     FM242000 20018G30KT P6SM SCT025 BKN040
     FM242200 21012G20KT P6SM SCT025 BKN050
     FM250000 22009KT P6SM BKN060
     FM250600 27007KT P6SM SCT025 BKN050
     FM251500 27010G20KT P6SM BKN200=

USA.gov is the U.S. government's official web portal to all federal, state and local government web resources and services.